createdAt,value
2019-02-26T00:00:12.791Z,19.57
2019-02-26T00:02:46.509Z,16.97
2019-02-26T00:05:21.376Z,17.30
2019-02-26T00:07:55.090Z,18.27
2019-02-26T00:10:26.812Z,16.67
2019-02-26T00:12:58.003Z,15.53
2019-02-26T00:15:33.355Z,16.10
2019-02-26T00:18:02.516Z,17.60
2019-02-26T00:20:34.372Z,19.47
2019-02-26T00:23:05.765Z,22.30
2019-02-26T00:25:35.837Z,18.60
2019-02-26T00:28:05.918Z,20.30
2019-02-26T00:30:37.865Z,19.50
2019-02-26T00:33:10.597Z,21.73
2019-02-26T00:35:41.628Z,17.03
2019-02-26T00:38:18.171Z,21.53
2019-02-26T00:40:47.029Z,15.60
2019-02-26T00:43:20.939Z,18.13
2019-02-26T00:45:51.068Z,18.37
2019-02-26T00:48:21.761Z,19.57
2019-02-26T00:50:56.532Z,15.20
2019-02-26T00:53:25.986Z,18.20
2019-02-26T00:55:59.381Z,15.33
2019-02-26T00:58:32.107Z,18.73
2019-02-26T01:01:02.933Z,20.73
2019-02-26T01:03:33.043Z,17.87
2019-02-26T01:06:05.910Z,14.70
2019-02-26T01:08:38.396Z,14.77
2019-02-26T01:11:16.256Z,14.20
2019-02-26T01:13:46.268Z,14.50
2019-02-26T01:16:17.963Z,18.20
2019-02-26T01:18:54.455Z,13.90
2019-02-26T01:21:22.172Z,17.63
2019-02-26T01:23:56.700Z,12.60
2019-02-26T01:26:27.345Z,14.00
2019-02-26T01:28:58.495Z,13.33
2019-02-26T01:31:29.286Z,17.80
2019-02-26T01:34:00.541Z,14.60
2019-02-26T01:36:38.234Z,15.27
2019-02-26T01:39:12.001Z,17.47
2019-02-26T01:41:45.453Z,14.53
2019-02-26T01:44:14.685Z,13.53
2019-02-26T01:46:47.744Z,12.63
2019-02-26T01:49:21.478Z,19.60
2019-02-26T01:51:51.850Z,15.60
2019-02-26T01:54:30.518Z,17.20
2019-02-26T01:57:01.147Z,18.50
2019-02-26T01:59:34.550Z,12.60
2019-02-26T02:02:05.222Z,11.20
2019-02-26T02:04:37.124Z,15.73
2019-02-26T02:07:09.542Z,11.43
2019-02-26T02:09:40.073Z,11.53
2019-02-26T02:12:11.189Z,9.60
2019-02-26T02:14:41.373Z,11.50
2019-02-26T02:17:14.497Z,14.50
2019-02-26T02:19:46.159Z,11.63
2019-02-26T02:22:24.643Z,12.60
2019-02-26T02:24:55.665Z,13.00
2019-02-26T02:27:32.993Z,12.50
2019-02-26T02:30:02.963Z,14.63
2019-02-26T02:32:34.508Z,13.20
2019-02-26T02:35:06.828Z,12.40
2019-02-26T02:37:38.517Z,13.93
2019-02-26T02:40:09.394Z,13.07
2019-02-26T02:42:43.130Z,14.70
2019-02-26T02:45:19.641Z,12.60
2019-02-26T02:47:48.229Z,13.73
2019-02-26T02:50:21.302Z,17.70
2019-02-26T02:52:53.359Z,12.00
2019-02-26T02:55:27.099Z,16.63
2019-02-26T02:58:00.508Z,11.77
2019-02-26T03:00:33.915Z,13.87
2019-02-26T03:03:02.438Z,10.93
2019-02-26T03:05:35.159Z,12.17
2019-02-26T03:08:05.291Z,13.57
2019-02-26T03:10:40.147Z,14.70
2019-02-26T03:13:09.771Z,14.20
2019-02-26T03:15:41.267Z,14.37
2019-02-26T03:18:14.090Z,14.83
2019-02-26T03:20:45.497Z,13.93
2019-02-26T03:23:20.003Z,16.23
2019-02-26T03:25:52.921Z,11.87
2019-02-26T03:28:22.591Z,14.00
2019-02-26T03:30:52.590Z,14.87
2019-02-26T03:33:22.674Z,12.47
2019-02-26T03:35:52.749Z,16.27
2019-02-26T03:38:26.865Z,18.57
2019-02-26T03:40:58.924Z,12.37
2019-02-26T03:43:30.892Z,14.10
2019-02-26T03:46:04.525Z,14.37
2019-02-26T03:48:33.880Z,19.23
2019-02-26T03:51:17.218Z,13.40
2019-02-26T03:53:45.625Z,36.57
2019-02-26T03:56:20.513Z,72.53
2019-02-26T03:58:54.390Z,23.13
2019-02-26T04:01:22.148Z,12.33
2019-02-26T04:03:54.701Z,16.33
2019-02-26T04:06:23.988Z,12.20
2019-02-26T04:08:55.975Z,11.30
2019-02-26T04:11:39.336Z,13.13
2019-02-26T04:14:12.572Z,15.07
2019-02-26T04:16:43.597Z,11.60
2019-02-26T04:19:15.097Z,12.97
2019-02-26T04:22:23.169Z,19.00
2019-02-26T04:24:56.003Z,15.40
2019-02-26T04:28:15.067Z,13.90
2019-02-26T04:31:16.085Z,14.60
2019-02-26T04:34:09.293Z,15.83
2019-02-26T04:37:12.911Z,17.50
2019-02-26T04:40:05.365Z,14.67
2019-02-26T04:43:18.242Z,13.03
2019-02-26T04:46:20.876Z,15.33
2019-02-26T04:48:51.109Z,13.37
2019-02-26T04:51:21.303Z,12.43
2019-02-26T04:53:53.697Z,13.07
2019-02-26T04:56:23.072Z,17.90
2019-02-26T04:58:54.205Z,14.03
2019-02-26T05:01:24.271Z,14.97
2019-02-26T05:03:54.358Z,15.60
2019-02-26T05:06:24.376Z,20.03
2019-02-26T05:08:56.886Z,14.37
2019-02-26T05:11:31.364Z,13.20
2019-02-26T05:13:59.247Z,12.63
2019-02-26T05:16:31.900Z,11.97
2019-02-26T05:19:06.303Z,10.53
2019-02-26T05:21:37.946Z,16.80
2019-02-26T05:24:13.069Z,11.80
2019-02-26T05:26:43.788Z,12.30
2019-02-26T05:29:14.061Z,12.77
2019-02-26T05:31:45.089Z,14.30
2019-02-26T05:34:18.090Z,11.47
2019-02-26T05:36:51.592Z,13.77
2019-02-26T05:39:23.639Z,13.10
2019-02-26T05:41:57.989Z,12.23
2019-02-26T05:44:26.780Z,11.47
2019-02-26T05:46:58.702Z,11.33
2019-02-26T05:49:33.850Z,17.43
2019-02-26T05:52:04.213Z,13.87
2019-02-26T05:54:35.350Z,14.00
2019-02-26T05:57:06.740Z,13.50
2019-02-26T05:59:38.308Z,11.83
2019-02-26T06:02:10.602Z,12.17
2019-02-26T06:04:40.940Z,10.83
2019-02-26T06:07:21.750Z,13.17
2019-02-26T06:09:48.352Z,11.47
2019-02-26T06:12:20.956Z,10.50
2019-02-26T06:14:54.029Z,11.47
2019-02-26T06:17:24.022Z,9.57
2019-02-26T06:19:57.230Z,11.50
2019-02-26T06:22:29.700Z,11.23
2019-02-26T06:25:03.159Z,10.90
2019-02-26T06:27:32.641Z,9.70
2019-02-26T06:30:05.892Z,12.00
2019-02-26T06:32:37.916Z,9.60
2019-02-26T06:35:11.023Z,8.60
2019-02-26T06:37:40.284Z,12.00
2019-02-26T06:40:13.280Z,11.70
2019-02-26T06:42:46.873Z,12.30
2019-02-26T06:45:20.720Z,7.97
2019-02-26T06:47:53.565Z,7.60
2019-02-26T06:50:23.242Z,9.37
2019-02-26T06:52:56.497Z,11.00
2019-02-26T06:55:28.181Z,15.30
2019-02-26T06:58:22.595Z,12.70
2019-02-26T07:00:57.242Z,9.10
2019-02-26T07:03:28.801Z,8.20
2019-02-26T07:06:01.719Z,8.90
2019-02-26T07:08:31.088Z,6.27
2019-02-26T07:11:01.271Z,6.17
2019-02-26T07:13:36.250Z,7.30
2019-02-26T07:16:06.227Z,10.00
2019-02-26T07:18:39.289Z,9.93
2019-02-26T07:21:10.677Z,8.63
2019-02-26T07:23:42.721Z,9.40
2019-02-26T07:26:13.624Z,9.40
2019-02-26T07:28:46.357Z,7.00
2019-02-26T07:31:16.213Z,6.20
2019-02-26T07:33:46.293Z,7.67
2019-02-26T07:36:18.340Z,9.00
2019-02-26T07:38:54.761Z,8.93
2019-02-26T07:41:27.842Z,9.97
2019-02-26T07:44:00.060Z,6.37
2019-02-26T07:46:33.711Z,5.77
2019-02-26T07:49:04.771Z,7.23
2019-02-26T07:51:38.596Z,7.93
2019-02-26T07:54:08.527Z,7.70
2019-02-26T07:56:38.613Z,8.03
2019-02-26T07:59:10.070Z,8.30
2019-02-26T08:01:42.277Z,12.60
2019-02-26T08:04:13.523Z,12.10
2019-02-26T08:06:48.815Z,7.03
2019-02-26T08:09:23.126Z,17.93
2019-02-26T08:11:52.510Z,10.40
2019-02-26T08:14:23.378Z,10.13
2019-02-26T08:16:56.133Z,10.30
2019-02-26T08:19:29.783Z,5.23
2019-02-26T08:21:59.733Z,4.47
2019-02-26T08:24:29.875Z,5.07
2019-02-26T08:27:01.434Z,4.37
2019-02-26T08:29:33.657Z,4.00
2019-02-26T08:32:03.568Z,3.53
2019-02-26T08:34:33.621Z,4.07
2019-02-26T08:37:04.828Z,4.60
2019-02-26T08:39:37.898Z,4.10
2019-02-26T08:42:08.753Z,3.57
2019-02-26T08:44:38.940Z,6.40
2019-02-26T08:47:11.506Z,6.83
2019-02-26T08:49:43.465Z,10.40
2019-02-26T08:52:17.509Z,10.90
2019-02-26T08:54:47.052Z,4.10
2019-02-26T08:57:17.146Z,4.07
2019-02-26T08:59:49.215Z,10.33
2019-02-26T09:02:19.104Z,5.90
2019-02-26T09:04:49.207Z,4.70
2019-02-26T09:07:21.309Z,6.43
2019-02-26T09:09:54.330Z,4.50
2019-02-26T09:12:24.617Z,6.63
2019-02-26T09:14:54.552Z,4.27
2019-02-26T09:17:26.894Z,7.87
2019-02-26T09:20:08.372Z,3.67
2019-02-26T09:22:28.495Z,4.23
2019-02-26T09:24:59.925Z,5.33
2019-02-26T09:27:32.115Z,4.60
2019-02-26T09:30:03.445Z,5.97
2019-02-26T09:32:35.022Z,4.27
2019-02-26T09:35:05.885Z,4.60
2019-02-26T09:37:35.967Z,4.53
2019-02-26T09:40:06.998Z,3.93
2019-02-26T09:42:36.989Z,3.47
2019-02-26T09:45:09.294Z,5.20
2019-02-26T09:47:39.284Z,6.10
2019-02-26T09:50:12.488Z,5.27
2019-02-26T09:52:42.018Z,4.93
2019-02-26T09:55:15.841Z,4.40
2019-02-26T09:57:46.277Z,5.30
2019-02-26T10:00:19.529Z,6.10
2019-02-26T10:02:49.562Z,5.53
2019-02-26T10:05:20.713Z,6.60
2019-02-26T10:07:52.302Z,6.23
2019-02-26T10:10:22.546Z,6.67
2019-02-26T10:12:54.327Z,6.20
2019-02-26T10:15:24.438Z,6.13
2019-02-26T10:17:56.204Z,7.47
2019-02-26T10:20:29.488Z,5.70
2019-02-26T10:23:00.776Z,7.57
2019-02-26T10:25:32.181Z,5.20
2019-02-26T10:28:05.767Z,5.80
2019-02-26T10:30:35.914Z,5.60
2019-02-26T10:33:07.627Z,5.50
2019-02-26T10:35:39.606Z,6.17
2019-02-26T10:38:11.506Z,6.10
2019-02-26T10:40:52.270Z,5.30
2019-02-26T10:43:13.157Z,5.90
2019-02-26T10:45:44.773Z,5.17
2019-02-26T10:48:16.848Z,6.50
2019-02-26T10:50:49.206Z,5.35
2019-02-26T10:53:20.376Z,6.07
2019-02-26T10:55:50.587Z,5.30
2019-02-26T10:58:20.650Z,5.47
2019-02-26T11:00:55.612Z,7.27
2019-02-26T11:03:24.911Z,5.57
2019-02-26T11:05:54.972Z,5.00
2019-02-26T11:08:28.960Z,6.53
2019-02-26T11:10:56.754Z,5.17
2019-02-26T11:13:29.808Z,6.47
2019-02-26T11:16:02.913Z,5.43
2019-02-26T11:18:31.613Z,6.13
2019-02-26T11:21:01.856Z,4.70
2019-02-26T11:23:34.026Z,4.87
2019-02-26T11:26:04.567Z,5.20
2019-02-26T11:28:37.852Z,8.20
2019-02-26T11:31:08.987Z,5.10
2019-02-26T11:33:39.159Z,5.10
2019-02-26T11:36:11.124Z,4.63
2019-02-26T11:38:47.080Z,4.80
2019-02-26T11:41:15.891Z,7.67
2019-02-26T11:43:45.987Z,4.90
2019-02-26T11:46:16.011Z,6.20
2019-02-26T11:48:47.589Z,5.40
2019-02-26T11:51:20.865Z,7.77
2019-02-26T11:53:50.885Z,5.60
2019-02-26T11:56:23.163Z,4.87
2019-02-26T11:58:52.737Z,5.20
2019-02-26T12:01:22.817Z,5.27
2019-02-26T12:03:56.228Z,6.20
2019-02-26T12:06:24.687Z,6.00
2019-02-26T12:08:54.839Z,5.63
2019-02-26T12:11:27.485Z,5.57
2019-02-26T12:13:57.565Z,6.50
2019-02-26T12:16:29.356Z,7.47
2019-02-26T12:19:04.067Z,6.60
2019-02-26T12:21:34.576Z,5.63
2019-02-26T12:24:08.907Z,6.07
2019-02-26T12:26:37.039Z,5.80
2019-02-26T12:29:08.731Z,5.37
2019-02-26T12:31:39.821Z,7.43
2019-02-26T12:34:11.826Z,13.17
2019-02-26T12:36:43.085Z,7.67
2019-02-26T12:39:16.023Z,5.83
2019-02-26T12:41:45.889Z,6.57
2019-02-26T12:44:20.845Z,7.50
2019-02-26T12:46:51.596Z,6.57
2019-02-26T12:49:25.767Z,7.90
2019-02-26T12:51:59.924Z,6.17
2019-02-26T12:54:33.666Z,7.10
2019-02-26T12:57:04.230Z,6.30
2019-02-26T12:59:38.088Z,7.57
2019-02-26T13:02:13.950Z,8.50
2019-02-26T13:04:44.325Z,11.87
2019-02-26T13:07:14.540Z,7.10
2019-02-26T13:09:51.163Z,12.87
2019-02-26T13:12:23.281Z,6.50
2019-02-26T13:15:02.244Z,8.50
2019-02-26T13:17:29.463Z,7.53
2019-02-26T13:20:01.912Z,6.40
2019-02-26T13:22:32.295Z,7.03
2019-02-26T13:25:03.569Z,7.03
2019-02-26T13:27:35.230Z,6.80
2019-02-26T13:30:07.342Z,7.10
2019-02-26T13:32:55.120Z,7.23
2019-02-26T13:35:09.420Z,9.50
2019-02-26T13:37:42.040Z,8.87
2019-02-26T13:40:13.673Z,10.43
2019-02-26T13:42:50.037Z,6.60
2019-02-26T13:45:23.470Z,8.03
2019-02-26T13:48:00.992Z,9.70
2019-02-26T13:50:28.186Z,6.70
2019-02-26T13:52:58.245Z,7.47
2019-02-26T13:55:30.770Z,7.83
2019-02-26T13:58:00.052Z,7.77
2019-02-26T14:00:30.204Z,6.80
2019-02-26T14:03:00.222Z,8.33
2019-02-26T14:05:37.845Z,7.40
2019-02-26T14:08:02.802Z,8.13
2019-02-26T14:10:32.887Z,8.03
2019-02-26T14:13:03.857Z,9.80
2019-02-26T14:15:34.131Z,7.80
2019-02-26T14:18:04.509Z,7.90
2019-02-26T14:20:34.601Z,8.67
2019-02-26T14:23:04.695Z,7.50
2019-02-26T14:25:34.706Z,8.93
2019-02-26T14:28:05.943Z,8.50
2019-02-26T14:30:37.050Z,7.87
2019-02-26T14:33:07.191Z,7.47
2019-02-26T14:35:37.281Z,7.43
2019-02-26T14:38:07.685Z,8.50
2019-02-26T14:40:37.792Z,7.70
2019-02-26T14:43:07.969Z,9.43
2019-02-26T14:45:41.160Z,11.10
2019-02-26T14:48:11.533Z,7.63
2019-02-26T14:50:41.719Z,7.70
2019-02-26T14:53:11.858Z,7.87
2019-02-26T14:55:41.987Z,7.40
2019-02-26T14:58:12.114Z,7.30
2019-02-26T15:00:42.677Z,7.70
2019-02-26T15:03:12.752Z,8.37
2019-02-26T15:05:42.949Z,8.13
2019-02-26T15:08:13.017Z,7.70
2019-02-26T15:10:43.226Z,9.43
2019-02-26T15:13:13.312Z,7.67
2019-02-26T15:15:43.403Z,11.00
2019-02-26T15:18:13.577Z,8.60
2019-02-26T15:20:43.667Z,7.20
2019-02-26T15:23:13.938Z,7.30
2019-02-26T15:25:44.043Z,7.03
2019-02-26T15:28:14.136Z,10.57
2019-02-26T15:30:44.326Z,6.30
2019-02-26T15:33:14.611Z,8.43
2019-02-26T15:35:46.914Z,6.60
2019-02-26T15:38:16.506Z,5.93
2019-02-26T15:40:46.641Z,8.37
2019-02-26T15:43:16.845Z,5.90
2019-02-26T15:45:51.938Z,6.57
2019-02-26T15:48:18.807Z,6.47
2019-02-26T15:50:52.038Z,5.83
2019-02-26T15:53:23.834Z,6.67
2019-02-26T15:55:54.013Z,6.60
2019-02-26T15:58:24.206Z,6.60
2019-02-26T16:00:54.328Z,9.90
2019-02-26T16:03:24.441Z,6.80
2019-02-26T16:05:56.510Z,12.87
2019-02-26T16:08:34.430Z,19.07
2019-02-26T16:10:58.494Z,9.57
2019-02-26T16:13:31.325Z,10.50
2019-02-26T16:16:01.707Z,9.77
2019-02-26T16:18:31.892Z,21.00
2019-02-26T16:21:02.135Z,23.10
2019-02-26T16:23:32.293Z,42.77
2019-02-26T16:26:02.408Z,11.57
2019-02-26T16:28:32.570Z,18.60
2019-02-26T16:31:04.522Z,22.93
2019-02-26T16:33:34.551Z,18.17
2019-02-26T16:36:04.727Z,15.33
2019-02-26T16:38:35.246Z,12.97
2019-02-26T16:41:05.612Z,12.83
2019-02-26T16:43:35.840Z,13.77
2019-02-26T16:46:08.322Z,12.57
2019-02-26T16:48:37.880Z,14.83
2019-02-26T16:51:09.374Z,17.57
2019-02-26T16:53:39.532Z,12.73
2019-02-26T16:56:09.816Z,11.90
2019-02-26T16:58:39.945Z,12.67
2019-02-26T17:01:11.593Z,12.03
2019-02-26T17:03:43.560Z,11.63
2019-02-26T17:06:13.810Z,11.20
2019-02-26T17:08:44.678Z,8.70
2019-02-26T17:11:15.818Z,10.30
2019-02-26T17:13:51.473Z,11.37
2019-02-26T17:16:23.326Z,12.30
2019-02-26T17:18:52.800Z,14.33
2019-02-26T17:21:25.835Z,14.23
2019-02-26T17:23:56.046Z,11.47
2019-02-26T17:26:26.293Z,16.20
2019-02-26T17:28:56.470Z,46.97
2019-02-26T17:31:28.706Z,45.77
2019-02-26T17:33:58.649Z,36.07
2019-02-26T17:36:35.142Z,25.37
2019-02-26T17:39:00.855Z,22.85
2019-02-26T17:41:31.116Z,17.83
2019-02-26T17:44:04.434Z,22.77
2019-02-26T17:46:34.476Z,23.03
2019-02-26T17:49:07.151Z,18.67
2019-02-26T17:51:38.623Z,24.10
2019-02-26T17:54:08.770Z,17.67
2019-02-26T17:56:39.090Z,15.00
2019-02-26T17:59:12.309Z,16.60
2019-02-26T18:01:46.080Z,14.77
2019-02-26T18:04:16.251Z,20.80
2019-02-26T18:06:46.514Z,30.67
2019-02-26T18:09:18.399Z,18.70
2019-02-26T18:11:48.550Z,22.83
2019-02-26T18:14:22.165Z,20.83
2019-02-26T18:16:52.510Z,22.53
2019-02-26T18:19:24.466Z,22.40
2019-02-26T18:21:54.992Z,20.30
2019-02-26T18:24:26.494Z,19.93
2019-02-26T18:26:56.744Z,25.63
2019-02-26T18:29:27.399Z,18.30
2019-02-26T18:31:57.642Z,18.23
2019-02-26T18:34:30.469Z,27.03
2019-02-26T18:37:00.959Z,20.97
2019-02-26T18:39:32.490Z,28.43
2019-02-26T18:42:02.776Z,30.00
2019-02-26T18:44:33.668Z,21.43
2019-02-26T18:47:07.100Z,21.57
2019-02-26T18:49:37.132Z,18.10
2019-02-26T18:52:09.119Z,18.00
2019-02-26T18:54:39.883Z,19.63
2019-02-26T18:57:13.726Z,26.47
2019-02-26T18:59:43.749Z,17.20
2019-02-26T19:02:17.459Z,21.27
2019-02-26T19:04:49.203Z,20.43
2019-02-26T19:07:19.706Z,17.77
2019-02-26T19:09:50.129Z,15.67
2019-02-26T19:12:21.219Z,18.60
2019-02-26T19:14:52.460Z,18.77
2019-02-26T19:17:26.600Z,14.30
2019-02-26T19:19:55.485Z,17.90
2019-02-26T19:22:27.215Z,20.00
2019-02-26T19:24:58.303Z,16.40
2019-02-26T19:27:28.729Z,16.50
2019-02-26T19:30:04.174Z,20.00
2019-02-26T19:32:33.815Z,13.57
2019-02-26T19:35:12.045Z,16.60
2019-02-26T19:37:36.624Z,15.20
2019-02-26T19:40:12.506Z,16.40
2019-02-26T19:42:42.955Z,16.97
2019-02-26T19:45:13.578Z,17.43
2019-02-26T19:47:43.958Z,14.30
2019-02-26T19:50:14.809Z,16.93
2019-02-26T19:52:46.642Z,15.53
2019-02-26T19:55:21.714Z,16.30
2019-02-26T19:57:54.703Z,13.37
2019-02-26T20:00:25.199Z,12.27
2019-02-26T20:02:56.964Z,14.50
2019-02-26T20:05:28.277Z,11.80
2019-02-26T20:07:59.056Z,10.90
2019-02-26T20:10:29.867Z,9.40
2019-02-26T20:13:01.362Z,9.47
2019-02-26T20:15:32.549Z,8.57
2019-02-26T20:18:03.106Z,8.60
2019-02-26T20:20:40.746Z,8.20
2019-02-26T20:23:06.679Z,7.77
2019-02-26T20:25:37.278Z,6.80
2019-02-26T20:28:08.140Z,6.30
2019-02-26T20:30:41.279Z,7.83
2019-02-26T20:33:13.403Z,9.03
2019-02-26T20:35:45.305Z,6.50
2019-02-26T20:38:16.244Z,6.03
2019-02-26T20:40:48.851Z,7.47
2019-02-26T20:43:18.657Z,9.60
2019-02-26T20:45:51.824Z,9.30
2019-02-26T20:48:22.099Z,14.10
2019-02-26T20:51:00.008Z,10.93
2019-02-26T20:53:32.534Z,16.93
2019-02-26T20:56:05.870Z,13.57
2019-02-26T20:58:36.467Z,9.27
2019-02-26T21:01:09.764Z,15.70
2019-02-26T21:03:44.512Z,14.30
2019-02-26T21:06:17.967Z,10.10
2019-02-26T21:08:50.009Z,12.07
2019-02-26T21:11:23.195Z,12.73
2019-02-26T21:13:53.500Z,10.73
2019-02-26T21:16:25.967Z,8.83
2019-02-26T21:18:56.922Z,11.57
2019-02-26T21:21:35.830Z,15.13
2019-02-26T21:24:06.377Z,14.03
2019-02-26T21:26:36.637Z,11.50
2019-02-26T21:29:06.895Z,12.20
2019-02-26T21:31:37.510Z,11.80
2019-02-26T21:34:07.735Z,15.23
2019-02-26T21:36:37.923Z,10.00
2019-02-26T21:39:10.917Z,13.10
2019-02-26T21:41:40.835Z,15.00
2019-02-26T21:44:15.863Z,11.20
2019-02-26T21:46:45.829Z,9.73
2019-02-26T21:49:16.051Z,8.70
2019-02-26T21:51:46.334Z,10.70
2019-02-26T21:54:16.593Z,9.53
2019-02-26T21:56:48.740Z,8.97
2019-02-26T21:59:18.570Z,7.97
2019-02-26T22:01:50.375Z,12.03
2019-02-26T22:04:20.608Z,9.07
2019-02-26T22:06:50.826Z,10.27
2019-02-26T22:09:24.085Z,9.87
2019-02-26T22:11:54.249Z,10.57
2019-02-26T22:14:25.928Z,13.23
2019-02-26T22:16:57.114Z,9.00
2019-02-26T22:19:27.470Z,9.00
2019-02-26T22:21:58.634Z,10.73
2019-02-26T22:24:28.654Z,21.70
2019-02-26T22:27:00.296Z,19.97
2019-02-26T22:29:31.592Z,27.20
2019-02-26T22:32:02.821Z,47.73
2019-02-26T22:34:35.864Z,25.63
2019-02-26T22:37:07.269Z,10.43
2019-02-26T22:39:37.773Z,10.17
2019-02-26T22:42:08.580Z,12.10
2019-02-26T22:44:40.394Z,8.17
2019-02-26T22:47:13.633Z,8.30
2019-02-26T22:49:43.762Z,8.87
2019-02-26T22:52:15.266Z,7.63
2019-02-26T22:54:48.158Z,8.50
2019-02-26T22:57:18.226Z,8.30
2019-02-26T22:59:50.440Z,10.03
2019-02-26T23:02:21.765Z,10.97
2019-02-26T23:04:54.302Z,7.33
2019-02-26T23:07:26.096Z,8.23
2019-02-26T23:09:59.379Z,8.57
2019-02-26T23:12:29.657Z,8.93
2019-02-26T23:15:03.020Z,9.60
2019-02-26T23:17:33.476Z,13.90
2019-02-26T23:20:03.497Z,16.80
2019-02-26T23:22:34.162Z,12.80
2019-02-26T23:25:11.372Z,11.63
2019-02-26T23:27:41.360Z,9.90
2019-02-26T23:30:12.277Z,9.87
2019-02-26T23:32:43.352Z,9.47
2019-02-26T23:35:14.705Z,9.83
2019-02-26T23:37:44.835Z,8.63
2019-02-26T23:40:17.744Z,8.60
2019-02-26T23:42:48.831Z,9.27
2019-02-26T23:45:23.929Z,9.40
2019-02-26T23:47:51.775Z,9.13
2019-02-26T23:50:22.589Z,11.23
2019-02-26T23:52:54.477Z,8.20
2019-02-26T23:55:25.373Z,9.00
2019-02-26T23:57:59.445Z,9.60
